sensor_id;sensor_type;location;lat;lon;timestamp;P1;durP1;ratioP1;P2;durP2;ratioP2
2474;SDS011;1248;48.694;10.160;2022-10-03T00:05:21;11.30;;;8.30;;
2474;SDS011;1248;48.694;10.160;2022-10-03T00:08:04;13.57;;;9.17;;
2474;SDS011;1248;48.694;10.160;2022-10-03T00:10:37;19.00;;;11.40;;
2474;SDS011;1248;48.694;10.160;2022-10-03T00:13:16;20.30;;;9.60;;
2474;SDS011;1248;48.694;10.160;2022-10-03T00:15:48;13.47;;;7.80;;
2474;SDS011;1248;48.694;10.160;2022-10-03T00:18:22;12.57;;;8.47;;
2474;SDS011;1248;48.694;10.160;2022-10-03T00:21:02;25.23;;;9.53;;
2474;SDS011;1248;48.694;10.160;2022-10-03T00:23:37;15.03;;;9.20;;
2474;SDS011;1248;48.694;10.160;2022-10-03T00:26:12;12.90;;;8.57;;
2474;SDS011;1248;48.694;10.160;2022-10-03T00:29:03;11.30;;;7.80;;
2474;SDS011;1248;48.694;10.160;2022-10-03T00:31:39;18.03;;;10.13;;
2474;SDS011;1248;48.694;10.160;2022-10-03T00:34:13;10.57;;;7.73;;
2474;SDS011;1248;48.694;10.160;2022-10-03T00:36:46;13.13;;;9.30;;
2474;SDS011;1248;48.694;10.160;2022-10-03T00:39:22;15.53;;;8.87;;
2474;SDS011;1248;48.694;10.160;2022-10-03T00:42:00;15.10;;;8.67;;
2474;SDS011;1248;48.694;10.160;2022-10-03T00:48:05;15.00;;;10.33;;
2474;SDS011;1248;48.694;10.160;2022-10-03T00:50:41;15.70;;;10.00;;
2474;SDS011;1248;48.694;10.160;2022-10-03T00:53:35;17.00;;;10.17;;
2474;SDS011;1248;48.694;10.160;2022-10-03T00:56:15;23.93;;;12.73;;
2474;SDS011;1248;48.694;10.160;2022-10-03T00:58:54;16.90;;;10.27;;
2474;SDS011;1248;48.694;10.160;2022-10-03T01:01:34;12.70;;;9.40;;
2474;SDS011;1248;48.694;10.160;2022-10-03T01:04:09;15.80;;;9.40;;
2474;SDS011;1248;48.694;10.160;2022-10-03T01:06:58;13.17;;;10.13;;
2474;SDS011;1248;48.694;10.160;2022-10-03T01:09:36;17.93;;;9.23;;
2474;SDS011;1248;48.694;10.160;2022-10-03T01:12:14;14.17;;;9.93;;
2474;SDS011;1248;48.694;10.160;2022-10-03T01:14:54;16.57;;;10.90;;
2474;SDS011;1248;48.694;10.160;2022-10-03T01:17:41;16.97;;;11.37;;
2474;SDS011;1248;48.694;10.160;2022-10-03T01:20:24;16.70;;;10.77;;
2474;SDS011;1248;48.694;10.160;2022-10-03T01:23:06;20.57;;;11.63;;
2474;SDS011;1248;48.694;10.160;2022-10-03T01:25:47;15.83;;;10.30;;
2474;SDS011;1248;48.694;10.160;2022-10-03T01:28:32;18.30;;;10.90;;
2474;SDS011;1248;48.694;10.160;2022-10-03T01:31:24;17.30;;;10.90;;
2474;SDS011;1248;48.694;10.160;2022-10-03T01:33:57;17.00;;;11.87;;
2474;SDS011;1248;48.694;10.160;2022-10-03T01:36:28;23.60;;;11.80;;
2474;SDS011;1248;48.694;10.160;2022-10-03T01:38:59;13.23;;;9.87;;
2474;SDS011;1248;48.694;10.160;2022-10-03T01:41:31;17.67;;;10.17;;
2474;SDS011;1248;48.694;10.160;2022-10-03T01:44:10;14.13;;;9.80;;
2474;SDS011;1248;48.694;10.160;2022-10-03T01:46:41;20.80;;;11.37;;
2474;SDS011;1248;48.694;10.160;2022-10-03T01:49:14;18.07;;;9.60;;
2474;SDS011;1248;48.694;10.160;2022-10-03T01:51:49;18.70;;;10.20;;
2474;SDS011;1248;48.694;10.160;2022-10-03T01:54:20;18.47;;;11.60;;
2474;SDS011;1248;48.694;10.160;2022-10-03T01:56:55;14.90;;;10.53;;
2474;SDS011;1248;48.694;10.160;2022-10-03T01:59:29;17.77;;;10.37;;
2474;SDS011;1248;48.694;10.160;2022-10-03T02:02:03;16.53;;;10.80;;
2474;SDS011;1248;48.694;10.160;2022-10-03T02:04:35;15.30;;;10.00;;
2474;SDS011;1248;48.694;10.160;2022-10-03T02:07:07;14.87;;;9.80;;
2474;SDS011;1248;48.694;10.160;2022-10-03T02:09:47;13.43;;;10.10;;
2474;SDS011;1248;48.694;10.160;2022-10-03T02:12:22;17.43;;;11.17;;
2474;SDS011;1248;48.694;10.160;2022-10-03T02:14:56;20.57;;;11.27;;
2474;SDS011;1248;48.694;10.160;2022-10-03T02:17:27;15.60;;;10.23;;
2474;SDS011;1248;48.694;10.160;2022-10-03T02:20:00;15.13;;;10.50;;
2474;SDS011;1248;48.694;10.160;2022-10-03T02:22:33;21.43;;;12.37;;
2474;SDS011;1248;48.694;10.160;2022-10-03T02:25:08;21.00;;;13.00;;
2474;SDS011;1248;48.694;10.160;2022-10-03T02:27:47;27.80;;;13.60;;
2474;SDS011;1248;48.694;10.160;2022-10-03T02:30:45;24.23;;;15.17;;
2474;SDS011;1248;48.694;10.160;2022-10-03T02:36:28;20.60;;;12.93;;
2474;SDS011;1248;48.694;10.160;2022-10-03T02:42:30;18.13;;;11.70;;
2474;SDS011;1248;48.694;10.160;2022-10-03T02:45:27;20.43;;;10.90;;
2474;SDS011;1248;48.694;10.160;2022-10-03T02:48:15;16.63;;;11.67;;
2474;SDS011;1248;48.694;10.160;2022-10-03T02:51:35;25.00;;;11.70;;
2474;SDS011;1248;48.694;10.160;2022-10-03T02:57:19;16.27;;;11.30;;
2474;SDS011;1248;48.694;10.160;2022-10-03T03:00:06;20.90;;;12.70;;
2474;SDS011;1248;48.694;10.160;2022-10-03T03:05:49;15.43;;;11.23;;
2474;SDS011;1248;48.694;10.160;2022-10-03T03:08:44;17.97;;;11.60;;
2474;SDS011;1248;48.694;10.160;2022-10-03T03:11:25;21.20;;;11.70;;
2474;SDS011;1248;48.694;10.160;2022-10-03T03:14:11;22.73;;;13.40;;
2474;SDS011;1248;48.694;10.160;2022-10-03T03:16:51;24.73;;;13.87;;
2474;SDS011;1248;48.694;10.160;2022-10-03T03:19:31;22.93;;;12.97;;
2474;SDS011;1248;48.694;10.160;2022-10-03T03:22:08;20.60;;;12.20;;
2474;SDS011;1248;48.694;10.160;2022-10-03T03:24:48;30.17;;;13.70;;
2474;SDS011;1248;48.694;10.160;2022-10-03T03:27:32;19.83;;;13.10;;
2474;SDS011;1248;48.694;10.160;2022-10-03T03:30:09;27.80;;;12.67;;
2474;SDS011;1248;48.694;10.160;2022-10-03T03:32:43;19.40;;;12.03;;
2474;SDS011;1248;48.694;10.160;2022-10-03T03:35:26;22.03;;;13.30;;
2474;SDS011;1248;48.694;10.160;2022-10-03T03:38:18;19.60;;;13.80;;
2474;SDS011;1248;48.694;10.160;2022-10-03T03:40:57;27.07;;;13.93;;
2474;SDS011;1248;48.694;10.160;2022-10-03T03:44:03;28.57;;;14.33;;
2474;SDS011;1248;48.694;10.160;2022-10-03T03:46:43;21.10;;;13.70;;
2474;SDS011;1248;48.694;10.160;2022-10-03T03:49:21;30.87;;;14.13;;
2474;SDS011;1248;48.694;10.160;2022-10-03T03:54:58;22.03;;;12.73;;
2474;SDS011;1248;48.694;10.160;2022-10-03T03:57:46;24.83;;;13.97;;
2474;SDS011;1248;48.694;10.160;2022-10-03T04:00:26;15.70;;;12.20;;
2474;SDS011;1248;48.694;10.160;2022-10-03T04:03:00;22.50;;;12.77;;
2474;SDS011;1248;48.694;10.160;2022-10-03T04:05:39;19.60;;;12.30;;
2474;SDS011;1248;48.694;10.160;2022-10-03T04:08:27;21.30;;;13.97;;
2474;SDS011;1248;48.694;10.160;2022-10-03T04:11:09;18.77;;;12.03;;
2474;SDS011;1248;48.694;10.160;2022-10-03T04:13:47;29.10;;;13.80;;
2474;SDS011;1248;48.694;10.160;2022-10-03T04:16:30;21.80;;;13.20;;
2474;SDS011;1248;48.694;10.160;2022-10-03T04:19:27;23.67;;;13.57;;
2474;SDS011;1248;48.694;10.160;2022-10-03T04:22:05;28.17;;;15.20;;
2474;SDS011;1248;48.694;10.160;2022-10-03T04:24:42;23.87;;;13.00;;
2474;SDS011;1248;48.694;10.160;2022-10-03T04:27:23;18.97;;;14.40;;
2474;SDS011;1248;48.694;10.160;2022-10-03T04:30:00;22.03;;;13.97;;
2474;SDS011;1248;48.694;10.160;2022-10-03T04:32:38;27.37;;;14.10;;
2474;SDS011;1248;48.694;10.160;2022-10-03T04:35:23;24.13;;;14.93;;
2474;SDS011;1248;48.694;10.160;2022-10-03T04:38:05;27.30;;;17.57;;
2474;SDS011;1248;48.694;10.160;2022-10-03T04:40:40;20.23;;;14.73;;
2474;SDS011;1248;48.694;10.160;2022-10-03T04:43:14;22.20;;;14.90;;
2474;SDS011;1248;48.694;10.160;2022-10-03T04:45:53;18.20;;;13.77;;
2474;SDS011;1248;48.694;10.160;2022-10-03T04:48:27;25.13;;;16.13;;
2474;SDS011;1248;48.694;10.160;2022-10-03T04:51:01;24.47;;;15.77;;
2474;SDS011;1248;48.694;10.160;2022-10-03T04:53:39;23.27;;;15.83;;
2474;SDS011;1248;48.694;10.160;2022-10-03T04:56:15;24.47;;;16.63;;
2474;SDS011;1248;48.694;10.160;2022-10-03T04:58:53;29.83;;;17.13;;
2474;SDS011;1248;48.694;10.160;2022-10-03T05:01:23;25.87;;;15.53;;
2474;SDS011;1248;48.694;10.160;2022-10-03T05:03:53;23.73;;;15.50;;
2474;SDS011;1248;48.694;10.160;2022-10-03T05:06:30;32.03;;;18.17;;
2474;SDS011;1248;48.694;10.160;2022-10-03T05:09:11;27.70;;;16.40;;
2474;SDS011;1248;48.694;10.160;2022-10-03T05:11:47;28.67;;;15.30;;
2474;SDS011;1248;48.694;10.160;2022-10-03T05:14:23;25.87;;;16.10;;
2474;SDS011;1248;48.694;10.160;2022-10-03T05:16:54;24.23;;;15.10;;
2474;SDS011;1248;48.694;10.160;2022-10-03T05:19:36;33.40;;;17.03;;
2474;SDS011;1248;48.694;10.160;2022-10-03T05:22:09;26.17;;;15.60;;
2474;SDS011;1248;48.694;10.160;2022-10-03T05:24:46;26.23;;;15.80;;
2474;SDS011;1248;48.694;10.160;2022-10-03T05:27:20;28.37;;;17.17;;
2474;SDS011;1248;48.694;10.160;2022-10-03T05:29:58;26.27;;;14.80;;
2474;SDS011;1248;48.694;10.160;2022-10-03T05:32:30;30.80;;;16.30;;
2474;SDS011;1248;48.694;10.160;2022-10-03T05:35:12;22.70;;;13.73;;
2474;SDS011;1248;48.694;10.160;2022-10-03T05:37:51;28.40;;;15.17;;
2474;SDS011;1248;48.694;10.160;2022-10-03T05:40:27;28.30;;;18.17;;
2474;SDS011;1248;48.694;10.160;2022-10-03T05:42:59;22.10;;;15.10;;
2474;SDS011;1248;48.694;10.160;2022-10-03T05:45:32;22.97;;;15.00;;
2474;SDS011;1248;48.694;10.160;2022-10-03T05:48:11;24.03;;;14.57;;
2474;SDS011;1248;48.694;10.160;2022-10-03T05:50:41;27.90;;;15.23;;
2474;SDS011;1248;48.694;10.160;2022-10-03T05:53:31;21.47;;;15.50;;
2474;SDS011;1248;48.694;10.160;2022-10-03T05:56:26;25.70;;;16.60;;
2474;SDS011;1248;48.694;10.160;2022-10-03T05:59:08;20.10;;;14.50;;
2474;SDS011;1248;48.694;10.160;2022-10-03T06:02:17;26.80;;;15.30;;
2474;SDS011;1248;48.694;10.160;2022-10-03T06:05:00;20.47;;;14.10;;
2474;SDS011;1248;48.694;10.160;2022-10-03T06:07:37;23.00;;;14.93;;
2474;SDS011;1248;48.694;10.160;2022-10-03T06:10:21;21.00;;;14.27;;
2474;SDS011;1248;48.694;10.160;2022-10-03T06:13:03;23.30;;;14.07;;
2474;SDS011;1248;48.694;10.160;2022-10-03T06:15:46;21.97;;;13.60;;
2474;SDS011;1248;48.694;10.160;2022-10-03T06:21:42;23.17;;;14.13;;
2474;SDS011;1248;48.694;10.160;2022-10-03T06:24:40;21.03;;;15.33;;
2474;SDS011;1248;48.694;10.160;2022-10-03T06:27:39;25.87;;;15.43;;
2474;SDS011;1248;48.694;10.160;2022-10-03T06:30:19;23.37;;;14.73;;
2474;SDS011;1248;48.694;10.160;2022-10-03T06:32:53;26.57;;;17.87;;
2474;SDS011;1248;48.694;10.160;2022-10-03T06:44:52;29.57;;;17.70;;
2474;SDS011;1248;48.694;10.160;2022-10-03T06:50:47;30.00;;;19.20;;
2474;SDS011;1248;48.694;10.160;2022-10-03T06:53:31;50.43;;;23.90;;
2474;SDS011;1248;48.694;10.160;2022-10-03T06:56:11;43.80;;;24.57;;
2474;SDS011;1248;48.694;10.160;2022-10-03T06:59:02;40.47;;;22.85;;
2474;SDS011;1248;48.694;10.160;2022-10-03T07:01:51;51.37;;;25.03;;
2474;SDS011;1248;48.694;10.160;2022-10-03T07:07:42;53.47;;;23.13;;
2474;SDS011;1248;48.694;10.160;2022-10-03T07:10:34;41.60;;;21.20;;
2474;SDS011;1248;48.694;10.160;2022-10-03T07:13:21;30.37;;;18.47;;
2474;SDS011;1248;48.694;10.160;2022-10-03T07:22:13;32.00;;;18.70;;
2474;SDS011;1248;48.694;10.160;2022-10-03T07:25:09;30.92;;;22.08;;
2474;SDS011;1248;48.694;10.160;2022-10-03T07:28:00;32.67;;;22.00;;
2474;SDS011;1248;48.694;10.160;2022-10-03T07:30:45;33.23;;;20.43;;
2474;SDS011;1248;48.694;10.160;2022-10-03T07:33:25;32.30;;;21.13;;
2474;SDS011;1248;48.694;10.160;2022-10-03T07:45:28;27.87;;;16.27;;
2474;SDS011;1248;48.694;10.160;2022-10-03T07:53:59;29.33;;;16.30;;
2474;SDS011;1248;48.694;10.160;2022-10-03T07:56:57;20.97;;;13.97;;
2474;SDS011;1248;48.694;10.160;2022-10-03T07:59:38;18.37;;;13.97;;
2474;SDS011;1248;48.694;10.160;2022-10-03T08:02:23;18.77;;;12.93;;
2474;SDS011;1248;48.694;10.160;2022-10-03T08:05:06;15.00;;;8.77;;
2474;SDS011;1248;48.694;10.160;2022-10-03T08:07:49;16.00;;;10.80;;
2474;SDS011;1248;48.694;10.160;2022-10-03T08:10:38;12.20;;;7.07;;
2474;SDS011;1248;48.694;10.160;2022-10-03T08:13:23;10.05;;;6.82;;
2474;SDS011;1248;48.694;10.160;2022-10-03T08:16:01;9.63;;;6.40;;
2474;SDS011;1248;48.694;10.160;2022-10-03T08:18:46;11.83;;;6.50;;
2474;SDS011;1248;48.694;10.160;2022-10-03T08:21:24;8.87;;;5.80;;
2474;SDS011;1248;48.694;10.160;2022-10-03T08:26:58;10.00;;;5.20;;
2474;SDS011;1248;48.694;10.160;2022-10-03T08:29:42;9.23;;;5.10;;
2474;SDS011;1248;48.694;10.160;2022-10-03T08:32:40;9.60;;;4.87;;
2474;SDS011;1248;48.694;10.160;2022-10-03T08:35:25;12.53;;;4.87;;
2474;SDS011;1248;48.694;10.160;2022-10-03T08:38:16;13.63;;;5.27;;
2474;SDS011;1248;48.694;10.160;2022-10-03T08:44:13;10.13;;;4.30;;
2474;SDS011;1248;48.694;10.160;2022-10-03T08:53:12;10.03;;;5.37;;
2474;SDS011;1248;48.694;10.160;2022-10-03T08:55:51;6.27;;;3.97;;
2474;SDS011;1248;48.694;10.160;2022-10-03T09:01:42;11.70;;;4.80;;
2474;SDS011;1248;48.694;10.160;2022-10-03T09:07:36;9.23;;;3.73;;
2474;SDS011;1248;48.694;10.160;2022-10-03T09:10:23;19.47;;;5.53;;
2474;SDS011;1248;48.694;10.160;2022-10-03T09:16:09;8.20;;;4.33;;
2474;SDS011;1248;48.694;10.160;2022-10-03T09:18:53;9.37;;;5.23;;
2474;SDS011;1248;48.694;10.160;2022-10-03T09:21:41;9.53;;;5.23;;
2474;SDS011;1248;48.694;10.160;2022-10-03T09:27:32;14.43;;;4.73;;
2474;SDS011;1248;48.694;10.160;2022-10-03T09:30:25;11.80;;;5.00;;
2474;SDS011;1248;48.694;10.160;2022-10-03T09:42:19;8.03;;;4.33;;
2474;SDS011;1248;48.694;10.160;2022-10-03T09:48:02;11.00;;;5.73;;
2474;SDS011;1248;48.694;10.160;2022-10-03T10:00:24;4.80;;;4.30;;
2474;SDS011;1248;48.694;10.160;2022-10-03T10:02:59;11.50;;;4.67;;
2474;SDS011;1248;48.694;10.160;2022-10-03T10:08:34;11.30;;;4.97;;
2474;SDS011;1248;48.694;10.160;2022-10-03T10:11:16;13.43;;;5.07;;
2474;SDS011;1248;48.694;10.160;2022-10-03T10:16:58;15.77;;;4.83;;
2474;SDS011;1248;48.694;10.160;2022-10-03T10:19:43;6.57;;;4.10;;
2474;SDS011;1248;48.694;10.160;2022-10-03T10:25:12;6.87;;;3.33;;
2474;SDS011;1248;48.694;10.160;2022-10-03T10:28:04;11.47;;;3.80;;
2474;SDS011;1248;48.694;10.160;2022-10-03T10:37:00;6.93;;;3.37;;
2474;SDS011;1248;48.694;10.160;2022-10-03T10:39:51;14.13;;;4.33;;
2474;SDS011;1248;48.694;10.160;2022-10-03T10:43:03;7.90;;;4.13;;
2474;SDS011;1248;48.694;10.160;2022-10-03T10:45:53;6.53;;;3.53;;
2474;SDS011;1248;48.694;10.160;2022-10-03T10:52:09;9.13;;;3.13;;
2474;SDS011;1248;48.694;10.160;2022-10-03T10:58:04;8.03;;;4.03;;
2474;SDS011;1248;48.694;10.160;2022-10-03T11:01:15;8.23;;;4.67;;
2474;SDS011;1248;48.694;10.160;2022-10-03T11:04:11;10.40;;;4.87;;
2474;SDS011;1248;48.694;10.160;2022-10-03T11:07:02;8.80;;;4.03;;
2474;SDS011;1248;48.694;10.160;2022-10-03T11:09:55;9.80;;;5.20;;
2474;SDS011;1248;48.694;10.160;2022-10-03T11:13:12;8.13;;;4.20;;
2474;SDS011;1248;48.694;10.160;2022-10-03T11:22:20;8.00;;;4.37;;
2474;SDS011;1248;48.694;10.160;2022-10-03T11:25:12;9.90;;;4.13;;
2474;SDS011;1248;48.694;10.160;2022-10-03T11:28:10;4.83;;;2.50;;
2474;SDS011;1248;48.694;10.160;2022-10-03T11:37:26;5.33;;;2.70;;
2474;SDS011;1248;48.694;10.160;2022-10-03T11:40:01;9.37;;;2.80;;
2474;SDS011;1248;48.694;10.160;2022-10-03T11:42:40;11.03;;;3.30;;
2474;SDS011;1248;48.694;10.160;2022-10-03T11:45:19;13.03;;;3.47;;
2474;SDS011;1248;48.694;10.160;2022-10-03T11:47:53;5.67;;;2.87;;
2474;SDS011;1248;48.694;10.160;2022-10-03T11:50:31;10.17;;;3.97;;
2474;SDS011;1248;48.694;10.160;2022-10-03T11:53:15;6.83;;;3.53;;
2474;SDS011;1248;48.694;10.160;2022-10-03T11:55:46;7.37;;;3.47;;
2474;SDS011;1248;48.694;10.160;2022-10-03T11:58:23;5.50;;;3.07;;
2474;SDS011;1248;48.694;10.160;2022-10-03T12:01:03;8.40;;;3.30;;
2474;SDS011;1248;48.694;10.160;2022-10-03T12:03:47;4.53;;;2.60;;
2474;SDS011;1248;48.694;10.160;2022-10-03T12:06:21;9.40;;;3.63;;
2474;SDS011;1248;48.694;10.160;2022-10-03T12:09:14;8.00;;;3.40;;
2474;SDS011;1248;48.694;10.160;2022-10-03T12:11:45;5.60;;;2.70;;
2474;SDS011;1248;48.694;10.160;2022-10-03T12:14:20;7.30;;;2.67;;
2474;SDS011;1248;48.694;10.160;2022-10-03T12:16:56;5.50;;;2.93;;
2474;SDS011;1248;48.694;10.160;2022-10-03T12:19:28;7.10;;;3.47;;
2474;SDS011;1248;48.694;10.160;2022-10-03T12:22:00;6.20;;;3.00;;
2474;SDS011;1248;48.694;10.160;2022-10-03T12:24:38;7.73;;;2.30;;
2474;SDS011;1248;48.694;10.160;2022-10-03T12:27:11;12.13;;;3.40;;
2474;SDS011;1248;48.694;10.160;2022-10-03T12:29:42;13.43;;;3.03;;
2474;SDS011;1248;48.694;10.160;2022-10-03T12:32:14;3.97;;;2.33;;
2474;SDS011;1248;48.694;10.160;2022-10-03T12:34:47;6.40;;;2.70;;
2474;SDS011;1248;48.694;10.160;2022-10-03T12:37:23;8.47;;;2.93;;
2474;SDS011;1248;48.694;10.160;2022-10-03T12:40:07;4.33;;;2.90;;
2474;SDS011;1248;48.694;10.160;2022-10-03T12:42:43;8.90;;;3.10;;
2474;SDS011;1248;48.694;10.160;2022-10-03T12:45:17;12.90;;;3.40;;
2474;SDS011;1248;48.694;10.160;2022-10-03T12:47:54;10.10;;;3.33;;
2474;SDS011;1248;48.694;10.160;2022-10-03T12:50:34;5.43;;;2.70;;
2474;SDS011;1248;48.694;10.160;2022-10-03T12:53:17;6.93;;;2.90;;
2474;SDS011;1248;48.694;10.160;2022-10-03T12:55:54;11.87;;;3.00;;
2474;SDS011;1248;48.694;10.160;2022-10-03T12:58:29;9.30;;;2.50;;
2474;SDS011;1248;48.694;10.160;2022-10-03T13:01:03;5.83;;;2.20;;
2474;SDS011;1248;48.694;10.160;2022-10-03T13:03:35;6.90;;;2.57;;
2474;SDS011;1248;48.694;10.160;2022-10-03T13:06:18;4.50;;;2.57;;
2474;SDS011;1248;48.694;10.160;2022-10-03T13:09:10;9.60;;;2.40;;
2474;SDS011;1248;48.694;10.160;2022-10-03T13:11:49;4.13;;;2.37;;
2474;SDS011;1248;48.694;10.160;2022-10-03T13:14:24;8.67;;;2.50;;
2474;SDS011;1248;48.694;10.160;2022-10-03T13:16:59;2.87;;;2.60;;
2474;SDS011;1248;48.694;10.160;2022-10-03T13:19:32;4.77;;;2.40;;
2474;SDS011;1248;48.694;10.160;2022-10-03T13:22:10;7.23;;;2.90;;
2474;SDS011;1248;48.694;10.160;2022-10-03T13:24:47;8.50;;;2.80;;
2474;SDS011;1248;48.694;10.160;2022-10-03T13:27:25;7.20;;;2.53;;
2474;SDS011;1248;48.694;10.160;2022-10-03T13:30:01;6.23;;;3.07;;
2474;SDS011;1248;48.694;10.160;2022-10-03T13:32:31;7.87;;;2.80;;
2474;SDS011;1248;48.694;10.160;2022-10-03T13:38:25;6.73;;;2.23;;
2474;SDS011;1248;48.694;10.160;2022-10-03T13:41:04;5.20;;;2.53;;
2474;SDS011;1248;48.694;10.160;2022-10-03T13:43:38;5.23;;;2.27;;
2474;SDS011;1248;48.694;10.160;2022-10-03T13:46:11;10.10;;;2.97;;
2474;SDS011;1248;48.694;10.160;2022-10-03T13:48:40;7.47;;;2.50;;
2474;SDS011;1248;48.694;10.160;2022-10-03T13:51:12;5.13;;;2.97;;
2474;SDS011;1248;48.694;10.160;2022-10-03T13:53:52;6.53;;;2.33;;
2474;SDS011;1248;48.694;10.160;2022-10-03T13:56:30;6.47;;;2.40;;
2474;SDS011;1248;48.694;10.160;2022-10-03T13:59:06;7.90;;;2.50;;
2474;SDS011;1248;48.694;10.160;2022-10-03T14:01:43;10.60;;;2.80;;
2474;SDS011;1248;48.694;10.160;2022-10-03T14:04:22;4.50;;;3.00;;
2474;SDS011;1248;48.694;10.160;2022-10-03T14:07:01;4.53;;;2.70;;
2474;SDS011;1248;48.694;10.160;2022-10-03T14:09:37;3.93;;;2.37;;
2474;SDS011;1248;48.694;10.160;2022-10-03T14:12:27;6.60;;;2.20;;
2474;SDS011;1248;48.694;10.160;2022-10-03T14:15:13;6.50;;;2.73;;
2474;SDS011;1248;48.694;10.160;2022-10-03T14:17:47;3.70;;;2.70;;
2474;SDS011;1248;48.694;10.160;2022-10-03T14:20:19;3.30;;;2.13;;
2474;SDS011;1248;48.694;10.160;2022-10-03T14:22:53;6.33;;;2.00;;
2474;SDS011;1248;48.694;10.160;2022-10-03T14:25:27;5.70;;;2.40;;
2474;SDS011;1248;48.694;10.160;2022-10-03T14:27:57;5.00;;;2.40;;
2474;SDS011;1248;48.694;10.160;2022-10-03T14:30:31;5.33;;;2.67;;
2474;SDS011;1248;48.694;10.160;2022-10-03T14:33:05;2.90;;;1.87;;
2474;SDS011;1248;48.694;10.160;2022-10-03T14:35:43;10.00;;;2.40;;
2474;SDS011;1248;48.694;10.160;2022-10-03T14:41:32;4.00;;;2.20;;
2474;SDS011;1248;48.694;10.160;2022-10-03T14:44:08;7.60;;;2.37;;
2474;SDS011;1248;48.694;10.160;2022-10-03T14:46:39;6.00;;;2.20;;
2474;SDS011;1248;48.694;10.160;2022-10-03T14:49:10;3.87;;;2.20;;
2474;SDS011;1248;48.694;10.160;2022-10-03T14:51:45;3.77;;;1.77;;
2474;SDS011;1248;48.694;10.160;2022-10-03T14:54:16;4.50;;;2.50;;
2474;SDS011;1248;48.694;10.160;2022-10-03T14:56:45;5.50;;;2.60;;
2474;SDS011;1248;48.694;10.160;2022-10-03T14:59:17;4.17;;;1.90;;
2474;SDS011;1248;48.694;10.160;2022-10-03T15:01:47;6.57;;;2.27;;
2474;SDS011;1248;48.694;10.160;2022-10-03T15:04:19;7.87;;;2.40;;
2474;SDS011;1248;48.694;10.160;2022-10-03T15:06:51;4.83;;;2.50;;
2474;SDS011;1248;48.694;10.160;2022-10-03T15:09:21;6.73;;;2.60;;
2474;SDS011;1248;48.694;10.160;2022-10-03T15:11:51;5.57;;;2.40;;
2474;SDS011;1248;48.694;10.160;2022-10-03T15:14:20;3.83;;;2.40;;
2474;SDS011;1248;48.694;10.160;2022-10-03T15:16:50;6.00;;;2.13;;
2474;SDS011;1248;48.694;10.160;2022-10-03T15:19:20;6.27;;;2.70;;
2474;SDS011;1248;48.694;10.160;2022-10-03T15:21:51;5.93;;;2.20;;
2474;SDS011;1248;48.694;10.160;2022-10-03T15:24:19;7.73;;;2.30;;
2474;SDS011;1248;48.694;10.160;2022-10-03T15:26:49;4.13;;;2.30;;
2474;SDS011;1248;48.694;10.160;2022-10-03T15:29:17;6.70;;;2.30;;
2474;SDS011;1248;48.694;10.160;2022-10-03T15:31:46;3.73;;;2.83;;
2474;SDS011;1248;48.694;10.160;2022-10-03T15:34:16;5.63;;;2.70;;
2474;SDS011;1248;48.694;10.160;2022-10-03T15:36:46;8.30;;;3.07;;
2474;SDS011;1248;48.694;10.160;2022-10-03T15:39:17;5.53;;;2.87;;
2474;SDS011;1248;48.694;10.160;2022-10-03T15:41:50;4.63;;;2.40;;
2474;SDS011;1248;48.694;10.160;2022-10-03T15:44:21;3.27;;;2.10;;
2474;SDS011;1248;48.694;10.160;2022-10-03T15:46:52;5.00;;;2.63;;
2474;SDS011;1248;48.694;10.160;2022-10-03T15:49:23;7.93;;;3.00;;
2474;SDS011;1248;48.694;10.160;2022-10-03T15:51:52;4.03;;;2.63;;
2474;SDS011;1248;48.694;10.160;2022-10-03T15:54:20;9.87;;;2.70;;
2474;SDS011;1248;48.694;10.160;2022-10-03T15:56:49;9.43;;;4.53;;
2474;SDS011;1248;48.694;10.160;2022-10-03T15:59:18;5.93;;;3.37;;
2474;SDS011;1248;48.694;10.160;2022-10-03T16:01:48;7.20;;;2.70;;
2474;SDS011;1248;48.694;10.160;2022-10-03T16:04:17;9.33;;;3.80;;
2474;SDS011;1248;48.694;10.160;2022-10-03T16:06:48;6.83;;;3.00;;
2474;SDS011;1248;48.694;10.160;2022-10-03T16:09:22;8.20;;;2.80;;
2474;SDS011;1248;48.694;10.160;2022-10-03T16:11:54;11.97;;;3.83;;
2474;SDS011;1248;48.694;10.160;2022-10-03T16:14:32;6.33;;;3.47;;
2474;SDS011;1248;48.694;10.160;2022-10-03T16:17:07;5.80;;;3.13;;
2474;SDS011;1248;48.694;10.160;2022-10-03T16:19:39;3.73;;;2.30;;
2474;SDS011;1248;48.694;10.160;2022-10-03T16:22:11;8.03;;;2.53;;
2474;SDS011;1248;48.694;10.160;2022-10-03T16:24:40;5.87;;;3.07;;
2474;SDS011;1248;48.694;10.160;2022-10-03T16:27:12;7.10;;;2.77;;
2474;SDS011;1248;48.694;10.160;2022-10-03T16:29:42;9.30;;;3.00;;
2474;SDS011;1248;48.694;10.160;2022-10-03T16:32:15;5.67;;;3.17;;
2474;SDS011;1248;48.694;10.160;2022-10-03T16:34:44;9.03;;;3.33;;
2474;SDS011;1248;48.694;10.160;2022-10-03T16:37:16;5.77;;;3.40;;
2474;SDS011;1248;48.694;10.160;2022-10-03T16:39:47;7.57;;;3.30;;
2474;SDS011;1248;48.694;10.160;2022-10-03T16:42:20;6.20;;;4.00;;
2474;SDS011;1248;48.694;10.160;2022-10-03T16:44:50;6.97;;;5.50;;
2474;SDS011;1248;48.694;10.160;2022-10-03T16:47:26;7.67;;;4.20;;
2474;SDS011;1248;48.694;10.160;2022-10-03T16:49:56;13.57;;;4.03;;
2474;SDS011;1248;48.694;10.160;2022-10-03T16:52:43;7.77;;;4.70;;
2474;SDS011;1248;48.694;10.160;2022-10-03T16:55:14;7.13;;;3.67;;
2474;SDS011;1248;48.694;10.160;2022-10-03T16:57:43;36.83;;;17.23;;
2474;SDS011;1248;48.694;10.160;2022-10-03T17:00:13;33.00;;;19.30;;
2474;SDS011;1248;48.694;10.160;2022-10-03T17:02:43;9.67;;;7.63;;
2474;SDS011;1248;48.694;10.160;2022-10-03T17:05:11;16.23;;;8.43;;
2474;SDS011;1248;48.694;10.160;2022-10-03T17:07:39;10.20;;;6.07;;
2474;SDS011;1248;48.694;10.160;2022-10-03T17:13:04;20.50;;;7.70;;
2474;SDS011;1248;48.694;10.160;2022-10-03T17:15:40;10.60;;;6.03;;
2474;SDS011;1248;48.694;10.160;2022-10-03T17:18:14;11.37;;;5.87;;
2474;SDS011;1248;48.694;10.160;2022-10-03T17:20:46;8.50;;;5.93;;
2474;SDS011;1248;48.694;10.160;2022-10-03T17:23:20;13.50;;;7.50;;
2474;SDS011;1248;48.694;10.160;2022-10-03T17:25:56;8.47;;;6.10;;
2474;SDS011;1248;48.694;10.160;2022-10-03T17:28:28;12.60;;;8.70;;
2474;SDS011;1248;48.694;10.160;2022-10-03T17:31:00;11.23;;;9.57;;
2474;SDS011;1248;48.694;10.160;2022-10-03T17:33:31;15.63;;;10.53;;
2474;SDS011;1248;48.694;10.160;2022-10-03T17:36:09;13.43;;;8.87;;
2474;SDS011;1248;48.694;10.160;2022-10-03T17:39:04;13.63;;;7.90;;
2474;SDS011;1248;48.694;10.160;2022-10-03T17:41:36;9.07;;;7.57;;
2474;SDS011;1248;48.694;10.160;2022-10-03T17:44:13;9.27;;;6.73;;
2474;SDS011;1248;48.694;10.160;2022-10-03T17:46:49;12.40;;;7.40;;
2474;SDS011;1248;48.694;10.160;2022-10-03T17:49:24;9.37;;;7.20;;
2474;SDS011;1248;48.694;10.160;2022-10-03T17:52:00;7.83;;;6.37;;
2474;SDS011;1248;48.694;10.160;2022-10-03T17:54:29;13.27;;;7.63;;
2474;SDS011;1248;48.694;10.160;2022-10-03T17:56:59;12.20;;;6.60;;
2474;SDS011;1248;48.694;10.160;2022-10-03T17:59:31;8.33;;;5.90;;
2474;SDS011;1248;48.694;10.160;2022-10-03T18:02:12;16.93;;;7.00;;
2474;SDS011;1248;48.694;10.160;2022-10-03T18:04:42;9.17;;;7.00;;
2474;SDS011;1248;48.694;10.160;2022-10-03T18:07:11;8.80;;;7.00;;
2474;SDS011;1248;48.694;10.160;2022-10-03T18:09:41;9.27;;;5.70;;
2474;SDS011;1248;48.694;10.160;2022-10-03T18:12:12;13.47;;;6.13;;
2474;SDS011;1248;48.694;10.160;2022-10-03T18:14:45;11.33;;;7.37;;
2474;SDS011;1248;48.694;10.160;2022-10-03T18:17:23;14.07;;;8.90;;
2474;SDS011;1248;48.694;10.160;2022-10-03T18:19:55;10.50;;;7.90;;
2474;SDS011;1248;48.694;10.160;2022-10-03T18:22:32;11.90;;;8.10;;
2474;SDS011;1248;48.694;10.160;2022-10-03T18:25:11;13.50;;;9.83;;
2474;SDS011;1248;48.694;10.160;2022-10-03T18:28:03;24.60;;;13.93;;
2474;SDS011;1248;48.694;10.160;2022-10-03T18:30:34;36.80;;;20.13;;